This is the latest recevied weather packets stored in our database for station/object N7WLC. If no packets are shown the sender has not sent any weather packets the latest 1 day(s).
| Time | Temp. | Humidity | Pressure | Rain* | Wind** | Luminosity | Snow |
|---|---|---|---|---|---|---|---|
| 1778117448 | 18.33° C | 61% | 1016 hPa | 0 mm | 0 m/s | - | - |
| 1778113847 | 20° C | 56% | 1015.8 hPa | 0 mm | 0 m/s | - | - |
| 1778110248 | 21.11° C | 53% | 1016 hPa | 0 mm | 0.89 m/s, 279° | - | - |
| 1778104848 | 22.78° C | 49% | 1016.8 hPa | 0 mm | 0.45 m/s, 243° | - | - |
| 1778095280 | 23.33° C | 47% | 1017.7 hPa | 0 mm | 0 m/s | - | - |
| 1778088079 | 21.11° C | 48% | 1018.2 hPa | 0 mm | 0 m/s | - | - |
| 1778084478 | 19.44° C | 51% | 1018.1 hPa | 0 mm | 0.45 m/s, 216° | - | - |
| 1778082678 | 18.89° C | 55% | 1018.2 hPa | 0 mm | 0 m/s | - | - |
| 1778077278 | 13.89° C | 75% | 1018 hPa | 0 mm | 0.45 m/s, 250° | - | - |
| 1778071878 | 8.89° C | 93% | 1017.5 hPa | 0 mm | 0 m/s | - | - |
| 1778066478 | 9.44° C | 91% | 1017 hPa | 0 mm | 0 m/s | - | - |
| 1778064678 | 9.44° C | 91% | 1017 hPa | 0 mm | 0 m/s | - | - |
| 1778061078 | 10° C | 91% | 1017.2 hPa | 0 mm | 0 m/s | - | - |
| 1778057478 | 10° C | 90% | 1017.2 hPa | 0 mm | 0 m/s | - | - |
| 1778055677 | 10° C | 92% | 1017.5 hPa | 0 mm | 0 m/s | - | - |
| 1778053878 | 10° C | 91% | 1017.4 hPa | 0 mm | 0 m/s | - | - |
| 1778050277 | 11.11° C | 90% | 1017.2 hPa | 0 mm | 0 m/s | - | - |
| 1778048478 | 11.11° C | 89% | 1016.7 hPa | 0 mm | 0 m/s | - | - |
| 1778046678 | 11.67° C | 85% | 1016.6 hPa | 0 mm | 0 m/s | - | - |
| 1778044877 | 11.67° C | 85% | 1016.6 hPa | 0 mm | 0 m/s | - | - |
| 1778043077 | 12.22° C | 85% | 1016.1 hPa | 0 mm | 0 m/s | - | - |
| 1778041278 | 12.22° C | 83% | 1015.9 hPa | 0 mm | 0 m/s | - | - |
| 1778037677 | 13.33° C | 76% | 1015.1 hPa | 0 mm | 0 m/s | - | - |
| 1778035878 | 14.44° C | 71% | 1014.6 hPa | 0 mm | 0 m/s | - | - |
| 1778034078 | 15° C | 69% | 1014.3 hPa | 0 mm | 0 m/s | - | - |
* Rain latest hour (hover to see other rain measurements)
** Current wind speed in m/s (hover to see current wind gust speed)